Time;durP1;ratioP1;P1;durP2;ratioP2;P2;SDS_P1;SDS_P2;PMS_P1;PMS_P2;Temp;Humidity;BMP_temperature;BMP_pressure;BME280_temperature;BME280_humidity;BME280_pressure;Samples;Min_cycle;Max_cycle;Signal;HPM_P1;HPM_P2
2022/01/26 00:06:57;;;;;;;0.10;0.10;;;;;;;;;;5012918;28;20754;-67
2022/01/26 00:09:26;;;;;;;0.10;0.10;;;;;;;;;;5018337;28;20634;-67
2022/01/26 00:11:55;;;;;;;0.10;0.10;;;;;;;;;;5012526;28;20615;-67
2022/01/26 00:14:23;;;;;;;0.10;0.10;;;;;;;;;;5018292;28;20628;-67
2022/01/26 00:16:51;;;;;;;0.10;0.10;;;;;;;;;;5020147;28;20652;-67
2022/01/26 00:19:21;;;;;;;0.10;0.10;;;;;;;;;;5024743;28;20638;-67
2022/01/26 00:21:51;;;;;;;0.10;0.10;;;;;;;;;;5020016;28;20663;-68
2022/01/26 00:29:48;;;;;;;0.10;0.10;;;;;;;;;;5016279;28;20633;-68
2022/01/26 00:40:51;;;;;;;0.10;0.10;;;2.90;99.90;;;;;;5002423;28;20650;-68
2022/01/26 00:43:24;;;;;;;0.10;0.10;;;2.80;99.90;;;;;;5018543;28;20631;-68
2022/01/26 00:45:55;;;;;;;0.10;0.10;;;2.80;99.90;;;;;;5019814;28;20634;-68
2022/01/26 00:48:23;;;;;;;0.10;0.10;;;2.80;99.90;;;;;;5015576;28;20643;-68
2022/01/26 00:50:52;;;;;;;0.20;0.20;;;2.70;99.90;;;;;;5019905;28;20626;-68
2022/01/26 00:53:20;;;;;;;0.10;0.10;;;2.70;99.90;;;;;;5019140;28;20618;-68
2022/01/26 00:55:47;;;;;;;0.10;0.10;;;2.70;99.90;;;;;;5016908;28;20606;-68
2022/01/26 00:58:15;;;;;;;0.10;0.10;;;2.70;99.90;;;;;;5018296;28;20741;-68
2022/01/26 01:00:43;;;;;;;0.10;0.10;;;2.70;99.90;;;;;;5016407;28;20626;-68
2022/01/26 01:03:10;;;;;;;0.10;0.10;;;2.70;99.90;;;;;;5022867;28;20650;-68
2022/01/26 01:05:43;;;;;;;0.10;0.10;;;2.70;99.90;;;;;;5020915;28;20696;-68
2022/01/26 01:08:15;;;;;;;0.10;0.10;;;2.70;99.90;;;;;;5019756;28;20660;-67
2022/01/26 01:10:45;;;;;;;0.10;0.10;;;2.70;99.90;;;;;;5018603;28;20627;-68
2022/01/26 01:13:16;;;;;;;0.10;0.10;;;2.70;99.90;;;;;;5024371;28;20634;-67
2022/01/26 01:15:45;;;;;;;0.10;0.10;;;2.70;99.90;;;;;;5025601;28;20676;-68
2022/01/26 01:18:19;;;;;;;0.10;0.10;;;2.70;99.90;;;;;;5024356;28;20625;-68
2022/01/26 01:21:06;;;;;;;0.20;0.20;;;2.70;99.90;;;;;;5025281;28;20653;-67
2022/01/26 01:26:42;;;;;;;0.10;0.10;;;2.80;99.90;;;;;;5005512;28;20646;-68
2022/01/26 01:29:15;;;;;;;0.10;0.10;;;2.80;99.90;;;;;;5019056;28;20658;-68
2022/01/26 01:31:47;;;;;;;0.10;0.10;;;2.80;99.90;;;;;;5021393;28;20638;-68
2022/01/26 01:34:16;;;;;;;0.10;0.10;;;2.80;99.90;;;;;;5028278;28;20713;-67
2022/01/26 01:36:46;;;;;;;0.10;0.10;;;2.80;99.90;;;;;;5020559;28;20750;-68
2022/01/26 01:39:13;;;;;;;0.10;0.10;;;2.80;99.90;;;;;;5019803;28;20723;-68
2022/01/26 01:41:42;;;;;;;0.10;0.10;;;2.80;99.90;;;;;;5015345;28;20685;-68
2022/01/26 01:44:10;;;;;;;0.10;0.10;;;2.80;99.90;;;;;;5015726;28;20630;-68
2022/01/26 01:46:40;;;;;;;0.10;0.10;;;2.80;99.90;;;;;;5022320;28;20667;-67
2022/01/26 01:49:13;;;;;;;0.10;0.10;;;2.80;99.90;;;;;;5021794;28;20654;-67
2022/01/26 01:51:45;;;;;;;0.10;0.10;;;2.80;99.90;;;;;;5018663;28;20630;-68
2022/01/26 01:54:15;;;;;;;0.10;0.10;;;2.90;99.90;;;;;;5022794;28;20623;-67
2022/01/26 01:56:43;;;;;;;0.10;0.10;;;2.90;99.90;;;;;;5027974;28;21016;-68
2022/01/26 01:59:11;;;;;;;0.10;0.10;;;2.90;99.90;;;;;;5018424;28;20627;-68
2022/01/26 02:01:39;;;;;;;0.10;0.10;;;2.90;99.90;;;;;;5019117;28;20626;-68
2022/01/26 02:04:08;;;;;;;0.10;0.10;;;2.90;99.90;;;;;;5022294;28;20649;-68
2022/01/26 02:06:34;;;;;;;0.10;0.10;;;2.90;99.90;;;;;;5025421;28;20708;-68
2022/01/26 02:09:02;;;;;;;0.10;0.10;;;2.90;99.90;;;;;;5025255;28;20705;-68
2022/01/26 02:11:29;;;;;;;0.10;0.10;;;2.90;99.90;;;;;;5015123;28;20623;-68
2022/01/26 02:14:01;;;;;;;0.10;0.10;;;2.90;99.90;;;;;;5020509;28;20655;-68
2022/01/26 02:16:34;;;;;;;0.10;0.10;;;2.90;99.90;;;;;;5023183;28;20725;-68
2022/01/26 02:19:41;;;;;;;0.10;0.10;;;2.90;99.90;;;;;;5028548;28;21166;-68
2022/01/26 02:50:14;;;;;;;0.10;0.10;;;3.10;99.90;;;;;;5005622;28;20805;-78
2022/01/26 02:52:54;;;;;;;0.10;0.10;;;3.10;99.90;;;;;;5015974;28;20687;-78
2022/01/26 03:01:32;;;;;;;0.10;0.10;;;3.10;99.90;;;;;;4954274;28;20624;-78
2022/01/26 03:04:06;;;;;;;0.10;0.10;;;3.10;99.90;;;;;;4965806;28;20656;-78
2022/01/26 03:06:40;;;;;;;0.10;0.10;;;3.10;99.90;;;;;;5000734;28;20625;-78
2022/01/26 03:09:12;;;;;;;0.10;0.10;;;3.10;99.90;;;;;;5033955;28;20682;-78
2022/01/26 03:11:43;;;;;;;0.10;0.10;;;3.10;99.90;;;;;;5006373;28;20630;-78
2022/01/26 03:14:18;;;;;;;0.10;0.10;;;3.10;99.90;;;;;;5012678;28;20655;-78
2022/01/26 03:16:51;;;;;;;0.10;0.10;;;3.10;99.90;;;;;;5011678;28;20619;-78
2022/01/26 03:19:22;;;;;;;0.10;0.10;;;3.10;99.90;;;;;;5009456;28;20697;-78
2022/01/26 03:22:13;;;;;;;0.10;0.10;;;3.10;99.90;;;;;;5018543;28;20623;-78
2022/01/26 03:30:29;;;;;;;0.10;0.10;;;3.00;99.90;;;;;;5027656;28;20706;-77
2022/01/26 03:33:11;;;;;;;0.10;0.10;;;3.00;99.90;;;;;;5029770;28;20614;-78
2022/01/26 03:35:47;;;;;;;0.10;0.10;;;2.90;99.90;;;;;;5011015;28;20617;-78
2022/01/26 03:38:20;;;;;;;0.10;0.10;;;2.90;99.90;;;;;;5011830;28;20644;-78
2022/01/26 03:40:57;;;;;;;0.10;0.10;;;2.90;99.90;;;;;;5015083;28;20618;-78
2022/01/26 03:43:25;;;;;;;0.10;0.10;;;2.90;99.90;;;;;;5002269;28;20631;-78
2022/01/26 03:45:52;;;;;;;0.10;0.10;;;2.90;99.90;;;;;;5017942;28;20626;-78
2022/01/26 03:48:19;;;;;;;0.10;0.10;;;2.90;99.90;;;;;;5015522;28;20649;-78
2022/01/26 03:50:46;;;;;;;0.10;0.10;;;2.90;99.90;;;;;;5030805;28;20708;-78
2022/01/26 03:53:13;;;;;;;0.13;0.13;;;2.90;99.90;;;;;;5009221;28;20650;-78
2022/01/26 03:55:40;;;;;;;0.10;0.10;;;2.90;99.90;;;;;;5023300;28;20644;-78
2022/01/26 03:58:06;;;;;;;0.13;0.13;;;2.90;99.90;;;;;;5009545;28;20654;-78
2022/01/26 04:00:34;;;;;;;0.10;0.10;;;3.00;99.90;;;;;;5013499;28;20958;-78
2022/01/26 04:03:01;;;;;;;0.10;0.10;;;3.00;99.90;;;;;;5030156;28;20617;-78
2022/01/26 04:05:28;;;;;;;0.10;0.10;;;3.00;99.90;;;;;;5009884;28;20666;-78
2022/01/26 04:08:01;;;;;;;0.10;0.10;;;2.90;99.90;;;;;;5023105;28;20745;-78
2022/01/26 04:10:39;;;;;;;0.10;0.10;;;3.00;99.90;;;;;;5007279;28;20730;-78
2022/01/26 04:13:06;;;;;;;0.10;0.10;;;3.00;99.90;;;;;;5023329;28;20613;-78
2022/01/26 04:15:35;;;;;;;0.20;0.20;;;3.00;99.90;;;;;;5007891;28;20662;-78
2022/01/26 04:18:03;;;;;;;0.10;0.10;;;3.00;99.90;;;;;;5007609;28;20626;-78
2022/01/26 04:20:36;;;;;;;0.10;0.10;;;3.00;99.90;;;;;;5005535;28;20654;-78
2022/01/26 04:23:10;;;;;;;0.10;0.10;;;3.00;99.90;;;;;;5012474;28;20635;-77
2022/01/26 04:25:40;;;;;;;0.10;0.10;;;3.00;99.90;;;;;;5012344;28;20628;-78
2022/01/26 04:28:08;;;;;;;0.10;0.10;;;3.00;99.90;;;;;;5004927;28;20660;-78
2022/01/26 04:30:36;;;;;;;0.10;0.10;;;3.00;99.90;;;;;;5001769;28;20635;-78
2022/01/26 04:33:05;;;;;;;0.10;0.10;;;3.00;99.90;;;;;;5007093;28;20635;-78
2022/01/26 04:35:32;;;;;;;0.10;0.10;;;3.00;99.90;;;;;;5002657;28;20686;-78
2022/01/26 04:38:14;;;;;;;0.10;0.10;;;3.10;99.90;;;;;;5016440;28;20614;-78
2022/01/26 04:40:49;;;;;;;0.10;0.10;;;3.10;99.90;;;;;;5024138;28;20634;-78
2022/01/26 04:43:21;;;;;;;0.10;0.10;;;3.10;99.90;;;;;;5011181;28;20623;-77
2022/01/26 04:45:49;;;;;;;0.10;0.10;;;3.00;99.90;;;;;;5011691;28;20639;-78
2022/01/26 04:48:18;;;;;;;0.10;0.10;;;3.10;99.90;;;;;;5019376;28;20650;-77
2022/01/26 04:50:45;;;;;;;0.10;0.10;;;3.00;99.90;;;;;;5031595;28;20661;-77
2022/01/26 04:53:13;;;;;;;0.10;0.10;;;3.00;99.90;;;;;;5017232;28;20633;-76
2022/01/26 04:55:40;;;;;;;0.10;0.10;;;3.00;99.90;;;;;;5016252;28;20709;-77
2022/01/26 04:58:07;;;;;;;0.10;0.10;;;3.00;99.90;;;;;;5020515;28;20627;-77
2022/01/26 05:00:33;;;;;;;0.10;0.10;;;3.10;99.90;;;;;;5037794;28;20625;-77
2022/01/26 05:03:02;;;;;;;0.10;0.10;;;3.10;99.90;;;;;;5030750;28;20657;-77
2022/01/26 05:05:29;;;;;;;0.10;0.10;;;3.10;99.90;;;;;;5018764;28;20670;-77
2022/01/26 05:07:56;;;;;;;0.10;0.10;;;3.10;99.90;;;;;;5013998;28;20631;-78
2022/01/26 05:10:23;;;;;;;0.10;0.10;;;3.10;99.90;;;;;;5019357;28;20679;-77
2022/01/26 05:12:50;;;;;;;0.10;0.10;;;3.10;99.90;;;;;;5021579;28;20622;-77
2022/01/26 05:15:20;;;;;;;0.10;0.10;;;3.10;99.90;;;;;;5016641;28;20653;-76
2022/01/26 05:17:47;;;;;;;0.10;0.10;;;3.10;99.90;;;;;;5010227;28;20717;-76
2022/01/26 05:20:15;;;;;;;0.10;0.10;;;3.10;99.90;;;;;;5031661;28;20626;-76
2022/01/26 05:22:44;;;;;;;0.10;0.10;;;3.10;99.90;;;;;;5011183;28;20681;-76
2022/01/26 05:25:12;;;;;;;0.10;0.10;;;3.10;99.90;;;;;;5039541;28;20646;-76
2022/01/26 05:27:40;;;;;;;0.10;0.10;;;3.10;99.90;;;;;;5012296;28;20728;-77
2022/01/26 05:30:08;;;;;;;0.10;0.10;;;3.10;99.90;;;;;;5014111;28;20698;-77
2022/01/26 05:32:36;;;;;;;0.10;0.10;;;3.10;99.90;;;;;;5018105;28;20627;-77
2022/01/26 05:35:03;;;;;;;0.10;0.10;;;3.10;99.90;;;;;;5011523;28;20662;-77
2022/01/26 05:37:31;;;;;;;0.10;0.10;;;3.10;99.90;;;;;;5010836;28;20627;-77
2022/01/26 05:39:58;;;;;;;0.20;0.20;;;3.10;99.90;;;;;;5020442;28;20672;-76
2022/01/26 05:42:25;;;;;;;0.10;0.10;;;3.10;99.90;;;;;;5012191;28;20638;-78
2022/01/26 05:44:54;;;;;;;0.10;0.10;;;3.10;99.90;;;;;;5006177;28;20663;-78
2022/01/26 05:47:21;;;;;;;0.10;0.10;;;3.10;99.90;;;;;;5030332;28;20719;-78
2022/01/26 05:49:48;;;;;;;0.17;0.17;;;3.10;99.90;;;;;;5009187;28;20657;-78
2022/01/26 05:52:15;;;;;;;0.10;0.10;;;3.10;99.90;;;;;;5010138;28;20630;-78
2022/01/26 05:54:43;;;;;;;0.10;0.10;;;3.10;99.90;;;;;;5009076;28;20655;-78
2022/01/26 05:57:10;;;;;;;0.10;0.10;;;3.10;99.90;;;;;;5016578;28;20696;-77
2022/01/26 05:59:37;;;;;;;0.10;0.10;;;3.10;99.90;;;;;;5018346;28;20747;-78
2022/01/26 06:02:05;;;;;;;0.10;0.10;;;3.10;99.90;;;;;;5008256;28;20639;-77
2022/01/26 06:04:32;;;;;;;0.10;0.10;;;3.10;99.90;;;;;;5027040;28;20750;-77
2022/01/26 06:06:59;;;;;;;0.10;0.10;;;3.10;99.90;;;;;;5015159;28;20708;-78
2022/01/26 06:09:26;;;;;;;0.10;0.10;;;3.10;99.90;;;;;;5016646;28;20658;-77
2022/01/26 06:11:54;;;;;;;0.10;0.10;;;3.10;99.90;;;;;;5001223;28;20627;-81
2022/01/26 06:14:21;;;;;;;0.10;0.10;;;3.10;99.90;;;;;;5022285;28;20734;-77
2022/01/26 06:16:48;;;;;;;0.10;0.10;;;3.10;99.90;;;;;;5030681;28;20635;-77
2022/01/26 06:19:15;;;;;;;0.10;0.10;;;3.10;99.90;;;;;;5025271;28;20655;-77
2022/01/26 06:21:42;;;;;;;0.10;0.10;;;3.10;99.90;;;;;;5017511;28;20666;-77
2022/01/26 06:24:09;;;;;;;0.10;0.10;;;3.10;99.90;;;;;;5017923;28;20662;-77
2022/01/26 06:26:37;;;;;;;0.10;0.10;;;3.10;99.90;;;;;;5015384;28;20630;-77
2022/01/26 06:29:06;;;;;;;0.10;0.10;;;3.10;99.90;;;;;;5013917;28;20654;-78
2022/01/26 06:31:34;;;;;;;0.10;0.10;;;3.10;99.90;;;;;;5012641;28;20643;-78
2022/01/26 06:34:03;;;;;;;0.10;0.10;;;3.10;99.90;;;;;;5010558;28;20661;-78
2022/01/26 06:36:30;;;;;;;0.10;0.10;;;3.10;99.90;;;;;;5011555;28;20694;-78
2022/01/26 06:38:57;;;;;;;0.10;0.10;;;3.10;99.90;;;;;;5003632;28;20627;-77
2022/01/26 06:41:26;;;;;;;0.10;0.10;;;3.10;99.90;;;;;;5010270;28;20639;-78
2022/01/26 06:44:01;;;;;;;0.10;0.10;;;3.00;99.90;;;;;;5014619;28;20651;-78
2022/01/26 06:46:37;;;;;;;0.10;0.10;;;3.00;99.90;;;;;;5011033;28;20628;-78
2022/01/26 06:51:48;;;;;;;0.10;0.10;;;3.10;99.90;;;;;;4996535;28;20660;-78
2022/01/26 06:54:15;;;;;;;0.10;0.10;;;3.10;99.90;;;;;;5014287;28;20661;-77
2022/01/26 06:56:42;;;;;;;0.10;0.10;;;3.10;99.90;;;;;;5010732;28;20634;-77
2022/01/26 06:59:09;;;;;;;0.10;0.10;;;3.00;99.90;;;;;;5019699;28;20626;-77
2022/01/26 07:01:37;;;;;;;0.10;0.10;;;3.00;99.90;;;;;;5009953;28;20723;-77
2022/01/26 07:04:05;;;;;;;0.10;0.10;;;3.00;99.90;;;;;;5011536;28;21015;-77
2022/01/26 07:06:31;;;;;;;0.10;0.10;;;3.00;99.90;;;;;;5034000;28;20609;-78
2022/01/26 07:08:59;;;;;;;0.10;0.10;;;3.10;99.90;;;;;;5012249;28;20662;-78
2022/01/26 07:11:25;;;;;;;0.10;0.10;;;3.10;99.90;;;;;;5005603;28;21067;-77
2022/01/26 07:13:54;;;;;;;0.10;0.10;;;3.10;99.90;;;;;;5019226;28;20661;-77
2022/01/26 07:21:51;;;;;;;0.10;0.10;;;3.10;99.90;;;;;;5013636;28;20619;-77
2022/01/26 07:24:18;;;;;;;0.10;0.10;;;3.10;99.90;;;;;;5000906;28;20756;-77
2022/01/26 07:26:54;;;;;;;0.10;0.10;;;3.10;99.90;;;;;;5025913;28;20681;-78
2022/01/26 07:29:28;;;;;;;0.10;0.10;;;3.10;99.90;;;;;;5020567;28;20757;-78
2022/01/26 07:31:55;;;;;;;0.10;0.10;;;3.10;99.90;;;;;;5018464;28;20630;-78
2022/01/26 07:34:24;;;;;;;0.10;0.10;;;3.10;99.90;;;;;;5012224;28;20652;-78
2022/01/26 07:36:54;;;;;;;0.10;0.10;;;3.00;99.90;;;;;;4997511;28;20620;-78
2022/01/26 07:39:30;;;;;;;0.10;0.10;;;3.00;99.90;;;;;;5002747;28;20622;-77
2022/01/26 07:41:59;;;;;;;0.10;0.10;;;3.00;99.90;;;;;;5006887;28;20629;-77
2022/01/26 07:44:29;;;;;;;0.10;0.10;;;3.00;99.90;;;;;;5003451;28;20676;-77
2022/01/26 07:46:56;;;;;;;0.10;0.10;;;3.00;99.90;;;;;;5028627;28;20675;-77
2022/01/26 07:49:24;;;;;;;0.10;0.10;;;3.00;99.90;;;;;;5014732;28;20649;-78
2022/01/26 07:51:51;;;;;;;0.10;0.10;;;3.00;99.90;;;;;;5013251;28;21240;-77
2022/01/26 07:54:20;;;;;;;0.13;0.13;;;3.00;99.90;;;;;;5007766;28;20666;-77
2022/01/26 07:56:47;;;;;;;0.10;0.10;;;3.00;99.90;;;;;;5011684;28;20637;-77
2022/01/26 07:59:14;;;;;;;0.20;0.20;;;3.00;99.90;;;;;;5013562;28;20621;-77
2022/01/26 08:01:41;;;;;;;0.10;0.10;;;3.00;99.90;;;;;;5013619;28;20724;-77
2022/01/26 08:04:08;;;;;;;0.10;0.10;;;3.00;99.90;;;;;;5029145;28;20713;-78
2022/01/26 08:06:36;;;;;;;0.10;0.10;;;3.00;99.90;;;;;;5016162;28;20685;-77
2022/01/26 08:09:03;;;;;;;0.10;0.10;;;3.00;99.90;;;;;;5026106;28;20688;-77
2022/01/26 08:11:30;;;;;;;0.10;0.10;;;3.00;99.90;;;;;;5001049;28;20627;-77
2022/01/26 08:13:58;;;;;;;0.10;0.10;;;3.00;99.90;;;;;;5008333;28;20654;-77
2022/01/26 08:16:25;;;;;;;0.10;0.10;;;3.00;99.90;;;;;;5020321;28;20665;-77
2022/01/26 08:18:51;;;;;;;0.10;0.10;;;3.00;99.90;;;;;;5033010;28;20651;-77
2022/01/26 08:21:19;;;;;;;0.10;0.10;;;3.00;99.90;;;;;;5025516;28;20618;-77
2022/01/26 08:23:48;;;;;;;0.10;0.10;;;3.00;99.90;;;;;;5006213;28;20658;-77
2022/01/26 08:26:19;;;;;;;0.10;0.10;;;3.00;99.90;;;;;;5013079;28;20634;-77
2022/01/26 08:28:51;;;;;;;0.10;0.10;;;3.10;99.90;;;;;;5001784;28;20680;-77
2022/01/26 08:31:18;;;;;;;0.10;0.10;;;3.10;99.90;;;;;;5010035;28;20618;-77
2022/01/26 08:33:45;;;;;;;0.10;0.10;;;3.10;99.90;;;;;;5024783;28;20642;-77
2022/01/26 08:36:12;;;;;;;0.10;0.10;;;3.20;99.90;;;;;;5027933;28;20614;-77
2022/01/26 08:38:39;;;;;;;0.10;0.10;;;3.20;99.90;;;;;;5031242;28;21448;-77
2022/01/26 08:41:09;;;;;;;0.10;0.10;;;3.30;99.90;;;;;;5012101;28;20619;-77
2022/01/26 08:43:37;;;;;;;0.10;0.10;;;3.30;99.90;;;;;;4998733;28;20669;-77
2022/01/26 08:46:03;;;;;;;0.10;0.10;;;3.30;99.90;;;;;;5007195;28;20636;-77
2022/01/26 08:48:33;;;;;;;0.10;0.10;;;3.40;99.90;;;;;;5016448;28;20672;-77
2022/01/26 08:51:00;;;;;;;0.10;0.10;;;3.40;99.90;;;;;;5012934;28;20662;-77
2022/01/26 08:53:27;;;;;;;0.10;0.10;;;3.40;99.90;;;;;;5026992;28;20724;-77
2022/01/26 08:55:54;;;;;;;0.10;0.10;;;3.40;99.90;;;;;;5011305;28;20620;-77
2022/01/26 08:58:22;;;;;;;0.10;0.10;;;3.40;99.90;;;;;;5009296;28;20641;-77
2022/01/26 09:00:49;;;;;;;0.13;0.13;;;3.40;99.90;;;;;;5007659;28;20652;-77
2022/01/26 09:03:16;;;;;;;0.10;0.10;;;3.40;99.90;;;;;;5009015;28;20720;-77
2022/01/26 09:05:43;;;;;;;0.10;0.10;;;3.50;99.90;;;;;;5016449;28;20631;-77
2022/01/26 09:08:10;;;;;;;0.10;0.10;;;3.40;99.90;;;;;;5009918;28;20639;-77
2022/01/26 09:10:39;;;;;;;0.10;0.10;;;3.50;99.90;;;;;;5020033;28;20684;-77
2022/01/26 09:13:06;;;;;;;0.10;0.10;;;3.50;99.90;;;;;;5018473;28;20623;-77
2022/01/26 09:15:34;;;;;;;0.10;0.10;;;3.40;99.90;;;;;;5024334;28;20661;-77
2022/01/26 09:18:05;;;;;;;0.10;0.10;;;3.40;99.90;;;;;;5020541;28;20654;-77
2022/01/26 09:20:34;;;;;;;0.10;0.10;;;3.40;99.90;;;;;;5019533;28;20683;-77
2022/01/26 09:23:01;;;;;;;0.10;0.10;;;3.30;99.90;;;;;;5018856;28;20634;-77
2022/01/26 09:25:27;;;;;;;0.10;0.10;;;3.30;99.90;;;;;;5007997;28;20662;-77
2022/01/26 09:27:56;;;;;;;0.10;0.10;;;3.30;99.90;;;;;;5008121;28;20627;-77
2022/01/26 09:30:24;;;;;;;0.10;0.10;;;3.30;99.90;;;;;;5010066;28;21315;-77
2022/01/26 09:32:52;;;;;;;0.10;0.10;;;3.20;99.90;;;;;;5015747;28;20684;-77
2022/01/26 09:35:19;;;;;;;0.10;0.10;;;3.20;99.90;;;;;;5001629;28;20682;-77
2022/01/26 09:37:46;;;;;;;0.10;0.10;;;3.20;99.90;;;;;;5006408;28;20632;-77
2022/01/26 09:40:15;;;;;;;0.10;0.10;;;3.20;99.90;;;;;;5005715;28;21194;-77
2022/01/26 09:42:42;;;;;;;0.10;0.10;;;3.20;99.90;;;;;;5011810;28;20688;-77
2022/01/26 09:45:11;;;;;;;0.10;0.10;;;3.20;99.90;;;;;;5006959;28;20655;-77
2022/01/26 09:47:38;;;;;;;0.10;0.10;;;3.20;99.90;;;;;;5006255;28;20746;-77
2022/01/26 09:50:07;;;;;;;0.10;0.10;;;3.20;99.90;;;;;;5018664;28;20643;-77
2022/01/26 09:52:38;;;;;;;0.10;0.10;;;3.20;99.90;;;;;;5017283;28;20637;-77
2022/01/26 09:55:08;;;;;;;0.10;0.10;;;3.20;99.90;;;;;;5034584;28;21068;-77
2022/01/26 09:57:35;;;;;;;0.10;0.10;;;3.20;99.90;;;;;;5022257;28;20688;-77
2022/01/26 10:00:01;;;;;;;0.10;0.10;;;3.10;99.90;;;;;;5014477;28;20619;-77
2022/01/26 10:02:43;;;;;;;0.10;0.10;;;3.10;99.90;;;;;;5032751;28;20628;-77
2022/01/26 10:05:17;;;;;;;0.10;0.10;;;3.10;99.90;;;;;;5016097;28;20659;-77
2022/01/26 10:07:57;;;;;;;0.10;0.10;;;3.10;99.90;;;;;;5014038;28;20744;-77
2022/01/26 10:16:05;;;;;;;0.10;0.10;;;3.00;99.90;;;;;;5017100;28;20617;-77
2022/01/26 10:18:33;;;;;;;0.10;0.10;;;3.00;99.90;;;;;;5019516;28;20703;-77
2022/01/26 10:21:04;;;;;;;0.10;0.10;;;3.00;99.90;;;;;;5011614;28;20621;-77
2022/01/26 10:23:37;;;;;;;0.10;0.10;;;3.00;99.90;;;;;;5019175;28;20714;-77
2022/01/26 10:26:06;;;;;;;0.10;0.10;;;3.00;99.90;;;;;;5013959;28;20622;-78
2022/01/26 10:28:44;;;;;;;0.10;0.10;;;2.90;99.90;;;;;;5021931;28;20705;-77
2022/01/26 10:31:16;;;;;;;0.10;0.10;;;2.90;99.90;;;;;;5005645;28;20707;-77
2022/01/26 10:33:57;;;;;;;0.10;0.10;;;2.90;99.90;;;;;;5031408;28;20649;-77
2022/01/26 10:36:26;;;;;;;0.10;0.10;;;2.90;99.90;;;;;;5019936;28;20638;-77
2022/01/26 10:39:00;;;;;;;0.10;0.10;;;2.90;99.90;;;;;;5019852;28;20660;-77
2022/01/26 10:41:27;;;;;;;0.10;0.10;;;2.90;99.90;;;;;;5020151;28;20641;-77
2022/01/26 10:43:56;;;;;;;0.10;0.10;;;2.90;99.90;;;;;;5001741;28;20666;-77
2022/01/26 10:46:29;;;;;;;0.10;0.10;;;2.90;99.90;;;;;;5029667;28;20644;-77
2022/01/26 10:49:08;;;;;;;0.10;0.10;;;3.00;99.90;;;;;;5022929;28;20617;-77
2022/01/26 10:51:52;;;;;;;0.10;0.10;;;3.00;99.90;;;;;;5008282;28;20713;-77
2022/01/26 10:54:23;;;;;;;0.10;0.10;;;2.90;99.90;;;;;;5011887;28;20736;-77
2022/01/26 10:56:51;;;;;;;0.10;0.10;;;3.00;99.90;;;;;;5010700;28;20629;-77
2022/01/26 10:59:18;;;;;;;0.10;0.10;;;3.00;99.90;;;;;;5026147;28;20613;-77
2022/01/26 11:01:45;;;;;;;0.10;0.10;;;2.90;99.90;;;;;;5012442;28;20626;-77
2022/01/26 11:04:12;;;;;;;0.10;0.10;;;3.00;99.90;;;;;;5006970;28;20667;-77
2022/01/26 11:06:43;;;;;;;0.10;0.10;;;3.00;99.90;;;;;;5038990;28;20668;-78
2022/01/26 11:09:13;;;;;;;0.10;0.10;;;2.90;99.90;;;;;;5019974;28;20615;-77
2022/01/26 11:11:41;;;;;;;0.20;0.20;;;3.00;99.90;;;;;;5034247;28;20662;-77
2022/01/26 11:14:15;;;;;;;0.10;0.10;;;2.90;99.90;;;;;;5031743;28;20642;-77
2022/01/26 11:16:50;;;;;;;0.10;0.10;;;2.90;99.90;;;;;;5011728;28;20682;-77
2022/01/26 11:19:17;;;;;;;0.10;0.10;;;2.90;99.90;;;;;;5023457;28;20645;-77
2022/01/26 11:21:46;;;;;;;0.10;0.10;;;2.90;99.90;;;;;;5005319;28;20611;-77
2022/01/26 11:24:18;;;;;;;0.10;0.10;;;2.90;99.90;;;;;;5005898;28;20724;-77
2022/01/26 11:26:46;;;;;;;0.10;0.10;;;2.90;99.90;;;;;;5006789;28;20616;-77
2022/01/26 11:29:22;;;;;;;0.10;0.10;;;2.90;99.90;;;;;;5022066;28;20713;-77
2022/01/26 11:32:02;;;;;;;0.10;0.10;;;2.90;99.90;;;;;;5009393;28;20724;-77
2022/01/26 11:34:30;;;;;;;0.10;0.10;;;2.90;99.90;;;;;;5034837;28;20778;-77
2022/01/26 11:37:00;;;;;;;0.10;0.10;;;2.90;99.90;;;;;;5010919;28;20641;-77
2022/01/26 11:45:10;;;;;;;0.10;0.10;;;2.90;99.90;;;;;;4991339;28;20800;-77
2022/01/26 11:47:39;;;;;;;0.10;0.10;;;2.90;99.90;;;;;;5012830;28;20713;-77
2022/01/26 11:50:14;;;;;;;0.10;0.10;;;2.90;99.90;;;;;;5005893;28;20689;-77
2022/01/26 11:52:46;;;;;;;0.10;0.10;;;2.80;99.90;;;;;;5027279;28;20645;-77
2022/01/26 11:55:30;;;;;;;0.10;0.10;;;2.80;99.90;;;;;;5017847;28;20671;-77
2022/01/26 11:58:07;;;;;;;0.10;0.10;;;2.80;99.90;;;;;;4996832;28;20624;-77
2022/01/26 12:00:46;;;;;;;0.10;0.10;;;2.80;99.90;;;;;;5013896;28;20661;-77
2022/01/26 12:03:22;;;;;;;0.20;0.20;;;2.80;99.90;;;;;;5010435;28;20630;-77
2022/01/26 12:05:50;;;;;;;0.10;0.10;;;2.80;99.90;;;;;;5015980;28;20625;-77
2022/01/26 12:08:28;;;;;;;0.10;0.10;;;2.80;99.90;;;;;;5012511;28;20658;-77
2022/01/26 12:10:56;;;;;;;0.10;0.10;;;2.80;99.90;;;;;;5011558;28;20709;-77
2022/01/26 12:13:27;;;;;;;0.10;0.10;;;2.90;99.90;;;;;;5023028;28;20660;-77
2022/01/26 12:15:57;;;;;;;0.10;0.10;;;2.90;99.90;;;;;;5003454;28;20622;-77
2022/01/26 12:18:31;;;;;;;0.10;0.10;;;2.90;99.90;;;;;;5019943;28;20620;-77
2022/01/26 12:33:01;;;;;;;0.10;0.10;;;2.90;99.90;;;;;;5009347;28;20650;-77
2022/01/26 12:35:44;;;;;;;0.10;0.10;;;2.80;99.90;;;;;;5007818;28;20691;-78
2022/01/26 12:38:20;;;;;;;0.10;0.10;;;2.90;99.90;;;;;;5021920;28;20639;-77
2022/01/26 12:41:16;;;;;;;0.10;0.10;;;2.80;99.90;;;;;;5001562;28;20618;-78
2022/01/26 12:43:48;;;;;;;0.10;0.10;;;2.80;99.90;;;;;;5018728;28;20756;-78
2022/01/26 12:46:18;;;;;;;0.10;0.10;;;2.80;99.90;;;;;;5006245;28;20630;-79
2022/01/26 12:48:50;;;;;;;0.10;0.10;;;2.80;99.90;;;;;;5018083;28;20707;-78
2022/01/26 12:51:17;;;;;;;0.10;0.10;;;2.80;99.90;;;;;;4999713;28;20667;-79
2022/01/26 12:53:45;;;;;;;0.10;0.10;;;2.70;99.90;;;;;;5014739;28;20685;-78
2022/01/26 12:56:14;;;;;;;0.10;0.10;;;2.80;99.90;;;;;;5017242;28;20670;-77
2022/01/26 12:58:43;;;;;;;0.10;0.10;;;2.80;99.90;;;;;;5012457;28;20679;-77
2022/01/26 13:01:12;;;;;;;0.10;0.10;;;2.80;99.90;;;;;;5020366;28;20638;-77
2022/01/26 13:03:41;;;;;;;0.10;0.10;;;2.90;99.90;;;;;;5020087;28;20649;-77
2022/01/26 13:06:14;;;;;;;0.10;0.10;;;2.90;99.90;;;;;;5028600;28;20619;-76
2022/01/26 13:08:46;;;;;;;0.10;0.10;;;2.90;99.90;;;;;;5016644;28;20619;-76
2022/01/26 13:11:23;;;;;;;0.10;0.10;;;3.00;99.90;;;;;;5009197;28;20657;-75
2022/01/26 13:13:51;;;;;;;0.10;0.10;;;3.00;99.90;;;;;;5014125;28;20655;-75
2022/01/26 13:16:23;;;;;;;0.10;0.10;;;3.00;99.90;;;;;;5027940;28;20616;-77
2022/01/26 13:19:16;;;;;;;0.10;0.10;;;3.00;99.90;;;;;;5011142;28;20688;-75
2022/01/26 13:22:11;;;;;;;0.10;0.10;;;3.10;99.90;;;;;;5010746;28;20611;-76
2022/01/26 13:24:59;;;;;;;0.10;0.10;;;3.10;99.90;;;;;;5016363;28;20674;-76
2022/01/26 13:27:38;;;;;;;0.20;0.20;;;3.00;99.90;;;;;;5005369;28;20618;-76
2022/01/26 13:30:20;;;;;;;0.10;0.10;;;3.00;99.90;;;;;;5023839;28;20679;-77
2022/01/26 13:33:25;;;;;;;0.10;0.10;;;3.10;99.90;;;;;;5012180;28;20685;-79
2022/01/26 13:36:04;;;;;;;0.10;0.10;;;3.10;99.90;;;;;;5034738;28;20606;-79
2022/01/26 13:38:44;;;;;;;0.10;0.10;;;3.10;99.90;;;;;;5020917;28;20613;-78
2022/01/26 13:41:24;;;;;;;0.10;0.10;;;3.10;99.90;;;;;;5021809;28;20680;-78
2022/01/26 13:47:28;;;;;;;0.10;0.10;;;3.00;99.90;;;;;;4951605;28;20632;-79
2022/01/26 13:50:11;;;;;;;0.10;0.10;;;3.00;99.90;;;;;;5019625;28;20617;-79
2022/01/26 13:52:43;;;;;;;0.10;0.10;;;2.90;99.90;;;;;;5026087;28;20662;-78
2022/01/26 14:00:38;;;;;;;0.10;0.10;;;2.80;99.90;;;;;;5031235;28;20635;-78
2022/01/26 14:03:10;;;;;;;0.10;0.10;;;2.80;99.90;;;;;;5012332;28;20618;-78
2022/01/26 14:05:38;;;;;;;0.10;0.10;;;2.80;99.90;;;;;;5005993;28;20774;-78
2022/01/26 14:08:05;;;;;;;0.10;0.10;;;2.80;99.90;;;;;;5026345;28;20698;-79
2022/01/26 14:10:34;;;;;;;0.10;0.10;;;2.80;99.90;;;;;;5017270;28;20627;-79
2022/01/26 14:13:01;;;;;;;0.10;0.10;;;2.90;99.90;;;;;;5016981;28;20698;-80
2022/01/26 14:15:41;;;;;;;0.10;0.10;;;2.90;99.90;;;;;;5028877;28;21279;-78
2022/01/26 14:18:34;;;;;;;0.10;0.10;;;2.90;99.90;;;;;;5010417;28;20623;-79
2022/01/26 14:21:09;;;;;;;0.10;0.10;;;2.90;99.90;;;;;;5011448;28;20726;-80
2022/01/26 14:24:00;;;;;;;0.10;0.10;;;2.90;99.90;;;;;;5008310;28;20701;-79
2022/01/26 14:26:31;;;;;;;0.10;0.10;;;2.90;99.90;;;;;;5017884;28;20736;-80
2022/01/26 14:29:00;;;;;;;0.10;0.10;;;2.90;99.90;;;;;;5016224;28;20681;-80
2022/01/26 14:31:49;;;;;;;0.10;0.10;;;2.90;99.90;;;;;;5014240;28;20634;-80
2022/01/26 14:34:50;;;;;;;0.10;0.10;;;2.90;99.90;;;;;;5014588;28;20645;-79
2022/01/26 14:40:36;;;;;;;0.10;0.10;;;2.90;99.90;;;;;;5034428;28;20603;-78
2022/01/26 14:51:39;;;;;;;0.10;0.10;;;2.90;99.90;;;;;;5040166;28;21217;-79
2022/01/26 14:54:21;;;;;;;0.10;0.10;;;2.90;99.90;;;;;;5024013;28;20735;-79
2022/01/26 15:19:37;;;;;;;0.10;0.10;;;2.90;99.90;;;;;;5003469;28;20669;-78
2022/01/26 15:31:12;;;;;;;0.10;0.10;;;2.90;99.90;;;;;;4959822;28;20681;-80
2022/01/26 15:33:40;;;;;;;0.10;0.10;;;2.90;99.90;;;;;;5001948;28;20662;-79
2022/01/26 15:44:48;;;;;;;0.10;0.10;;;2.90;99.90;;;;;;5006650;28;20701;-79
2022/01/26 15:50:13;;;;;;;0.10;0.10;;;2.80;99.90;;;;;;5010146;28;20730;-78
2022/01/26 15:52:52;;;;;;;0.10;0.10;;;2.80;99.90;;;;;;5005615;28;20666;-81
2022/01/26 16:06:29;;;;;;;0.10;0.10;;;2.80;99.90;;;;;;5005220;28;20618;-75
2022/01/26 16:18:20;;;;;;;0.10;0.10;;;2.90;99.90;;;;;;5005098;28;20650;-75